sensor_id;sensor_type;location;lat;lon;timestamp;temperature;humidity
20670;DHT22;10494;50.868;4.180;2023-04-15T00:01:09;10.60;99.90
20670;DHT22;10494;50.868;4.180;2023-04-15T00:03:34;10.60;99.90
20670;DHT22;10494;50.868;4.180;2023-04-15T00:06:01;10.60;99.90
20670;DHT22;10494;50.868;4.180;2023-04-15T00:08:26;10.60;99.90
20670;DHT22;10494;50.868;4.180;2023-04-15T00:10:52;10.50;99.90
20670;DHT22;10494;50.868;4.180;2023-04-15T00:13:17;10.50;99.90
20670;DHT22;10494;50.868;4.180;2023-04-15T00:15:43;10.50;99.90
20670;DHT22;10494;50.868;4.180;2023-04-15T00:18:09;10.50;99.90
20670;DHT22;10494;50.868;4.180;2023-04-15T00:20:35;10.50;99.90
20670;DHT22;10494;50.868;4.180;2023-04-15T00:23:01;10.40;99.90
20670;DHT22;10494;50.868;4.180;2023-04-15T00:25:28;10.40;99.90
20670;DHT22;10494;50.868;4.180;2023-04-15T00:27:54;10.40;99.90
20670;DHT22;10494;50.868;4.180;2023-04-15T00:30:19;10.30;99.90
20670;DHT22;10494;50.868;4.180;2023-04-15T00:32:45;10.30;99.90
20670;DHT22;10494;50.868;4.180;2023-04-15T00:35:11;10.30;99.90
20670;DHT22;10494;50.868;4.180;2023-04-15T00:37:37;10.20;99.90
20670;DHT22;10494;50.868;4.180;2023-04-15T00:40:03;10.00;99.90
20670;DHT22;10494;50.868;4.180;2023-04-15T00:42:30;10.00;99.90
20670;DHT22;10494;50.868;4.180;2023-04-15T00:44:56;10.00;99.90
20670;DHT22;10494;50.868;4.180;2023-04-15T00:47:22;10.00;99.90
20670;DHT22;10494;50.868;4.180;2023-04-15T00:49:47;9.60;99.90
20670;DHT22;10494;50.868;4.180;2023-04-15T00:52:13;9.40;99.90
20670;DHT22;10494;50.868;4.180;2023-04-15T00:54:39;9.40;99.90
20670;DHT22;10494;50.868;4.180;2023-04-15T00:57:08;9.30;99.90
20670;DHT22;10494;50.868;4.180;2023-04-15T00:59:34;9.50;99.90
20670;DHT22;10494;50.868;4.180;2023-04-15T01:02:00;9.60;99.90
20670;DHT22;10494;50.868;4.180;2023-04-15T01:04:26;9.50;99.90
20670;DHT22;10494;50.868;4.180;2023-04-15T01:06:51;9.40;99.90
20670;DHT22;10494;50.868;4.180;2023-04-15T01:09:17;9.30;99.90
20670;DHT22;10494;50.868;4.180;2023-04-15T01:11:43;9.40;99.90
20670;DHT22;10494;50.868;4.180;2023-04-15T01:14:09;9.50;99.90
20670;DHT22;10494;50.868;4.180;2023-04-15T01:16:36;9.50;99.90
20670;DHT22;10494;50.868;4.180;2023-04-15T01:19:05;9.60;99.90
20670;DHT22;10494;50.868;4.180;2023-04-15T01:21:36;9.70;99.90
20670;DHT22;10494;50.868;4.180;2023-04-15T01:24:08;9.60;99.90
20670;DHT22;10494;50.868;4.180;2023-04-15T01:26:34;9.60;99.90
20670;DHT22;10494;50.868;4.180;2023-04-15T01:29:00;9.60;99.90
20670;DHT22;10494;50.868;4.180;2023-04-15T01:31:25;9.60;99.90
20670;DHT22;10494;50.868;4.180;2023-04-15T01:33:51;9.30;99.90
20670;DHT22;10494;50.868;4.180;2023-04-15T01:36:17;9.10;99.90
20670;DHT22;10494;50.868;4.180;2023-04-15T01:38:42;9.10;99.90
20670;DHT22;10494;50.868;4.180;2023-04-15T01:41:08;9.30;99.90
20670;DHT22;10494;50.868;4.180;2023-04-15T01:43:34;9.40;99.90
20670;DHT22;10494;50.868;4.180;2023-04-15T01:46:01;9.50;99.90
20670;DHT22;10494;50.868;4.180;2023-04-15T01:48:27;9.60;99.90
20670;DHT22;10494;50.868;4.180;2023-04-15T01:50:54;9.70;99.90
20670;DHT22;10494;50.868;4.180;2023-04-15T01:53:21;9.70;99.90
20670;DHT22;10494;50.868;4.180;2023-04-15T01:55:47;9.70;99.90
20670;DHT22;10494;50.868;4.180;2023-04-15T01:58:12;9.80;99.90
20670;DHT22;10494;50.868;4.180;2023-04-15T02:00:38;9.80;99.90
20670;DHT22;10494;50.868;4.180;2023-04-15T02:03:03;9.90;99.90
20670;DHT22;10494;50.868;4.180;2023-04-15T02:05:29;9.80;99.90
20670;DHT22;10494;50.868;4.180;2023-04-15T02:07:56;9.80;99.90
20670;DHT22;10494;50.868;4.180;2023-04-15T02:10:21;9.70;99.90
20670;DHT22;10494;50.868;4.180;2023-04-15T02:12:47;9.60;99.90
20670;DHT22;10494;50.868;4.180;2023-04-15T02:15:13;9.40;99.90
20670;DHT22;10494;50.868;4.180;2023-04-15T02:17:39;9.40;99.90
20670;DHT22;10494;50.868;4.180;2023-04-15T02:20:05;9.40;99.90
20670;DHT22;10494;50.868;4.180;2023-04-15T02:22:31;9.50;99.90
20670;DHT22;10494;50.868;4.180;2023-04-15T02:24:57;9.60;99.90
20670;DHT22;10494;50.868;4.180;2023-04-15T02:27:22;9.80;99.90
20670;DHT22;10494;50.868;4.180;2023-04-15T02:29:48;9.70;99.90
20670;DHT22;10494;50.868;4.180;2023-04-15T02:32:15;9.60;99.90
20670;DHT22;10494;50.868;4.180;2023-04-15T02:34:41;9.50;99.90
20670;DHT22;10494;50.868;4.180;2023-04-15T02:37:11;9.40;99.90
20670;DHT22;10494;50.868;4.180;2023-04-15T02:39:37;9.30;99.90
20670;DHT22;10494;50.868;4.180;2023-04-15T02:42:04;9.30;99.90
20670;DHT22;10494;50.868;4.180;2023-04-15T02:44:30;9.20;99.90
20670;DHT22;10494;50.868;4.180;2023-04-15T02:46:57;9.40;99.90
20670;DHT22;10494;50.868;4.180;2023-04-15T02:49:23;9.60;99.90
20670;DHT22;10494;50.868;4.180;2023-04-15T02:51:49;9.70;99.90
20670;DHT22;10494;50.868;4.180;2023-04-15T02:54:17;9.80;99.90
20670;DHT22;10494;50.868;4.180;2023-04-15T02:56:42;9.80;99.90
20670;DHT22;10494;50.868;4.180;2023-04-15T02:59:08;9.80;99.90
20670;DHT22;10494;50.868;4.180;2023-04-15T03:01:33;9.80;99.90
20670;DHT22;10494;50.868;4.180;2023-04-15T03:03:59;9.90;99.90
20670;DHT22;10494;50.868;4.180;2023-04-15T03:06:25;10.00;99.90
20670;DHT22;10494;50.868;4.180;2023-04-15T03:08:51;10.00;99.90
20670;DHT22;10494;50.868;4.180;2023-04-15T03:11:17;9.90;99.90
20670;DHT22;10494;50.868;4.180;2023-04-15T03:13:43;9.80;99.90
20670;DHT22;10494;50.868;4.180;2023-04-15T03:16:09;9.60;99.90
20670;DHT22;10494;50.868;4.180;2023-04-15T03:18:34;9.20;99.90
20670;DHT22;10494;50.868;4.180;2023-04-15T03:21:00;9.00;99.90
20670;DHT22;10494;50.868;4.180;2023-04-15T03:23:27;8.90;99.90
20670;DHT22;10494;50.868;4.180;2023-04-15T03:25:52;8.90;99.90
20670;DHT22;10494;50.868;4.180;2023-04-15T03:28:20;8.80;99.90
20670;DHT22;10494;50.868;4.180;2023-04-15T03:30:45;8.80;99.90
20670;DHT22;10494;50.868;4.180;2023-04-15T03:33:11;8.90;99.90
20670;DHT22;10494;50.868;4.180;2023-04-15T03:35:37;9.00;99.90
20670;DHT22;10494;50.868;4.180;2023-04-15T03:38:02;9.30;99.90
20670;DHT22;10494;50.868;4.180;2023-04-15T03:40:28;9.00;99.90
20670;DHT22;10494;50.868;4.180;2023-04-15T03:42:54;8.80;99.90
20670;DHT22;10494;50.868;4.180;2023-04-15T03:45:19;8.80;99.90
20670;DHT22;10494;50.868;4.180;2023-04-15T03:47:45;8.90;99.90
20670;DHT22;10494;50.868;4.180;2023-04-15T03:50:11;8.60;99.90
20670;DHT22;10494;50.868;4.180;2023-04-15T03:52:37;8.30;99.90
20670;DHT22;10494;50.868;4.180;2023-04-15T03:55:02;8.30;99.90
20670;DHT22;10494;50.868;4.180;2023-04-15T03:57:28;8.20;99.90
20670;DHT22;10494;50.868;4.180;2023-04-15T03:59:54;8.20;99.90
20670;DHT22;10494;50.868;4.180;2023-04-15T04:02:19;8.20;99.90
20670;DHT22;10494;50.868;4.180;2023-04-15T04:04:45;8.20;99.90
20670;DHT22;10494;50.868;4.180;2023-04-15T04:07:15;8.20;99.90
20670;DHT22;10494;50.868;4.180;2023-04-15T04:09:41;8.20;99.90
20670;DHT22;10494;50.868;4.180;2023-04-15T04:12:06;8.20;99.90
20670;DHT22;10494;50.868;4.180;2023-04-15T04:14:33;8.20;99.90
20670;DHT22;10494;50.868;4.180;2023-04-15T04:16:58;8.20;99.90
20670;DHT22;10494;50.868;4.180;2023-04-15T04:19:24;8.20;99.90
20670;DHT22;10494;50.868;4.180;2023-04-15T04:21:50;8.10;99.90
20670;DHT22;10494;50.868;4.180;2023-04-15T04:24:16;8.10;99.90
20670;DHT22;10494;50.868;4.180;2023-04-15T04:26:42;8.10;99.90
20670;DHT22;10494;50.868;4.180;2023-04-15T04:29:07;8.10;99.90
20670;DHT22;10494;50.868;4.180;2023-04-15T04:31:33;8.10;99.90
20670;DHT22;10494;50.868;4.180;2023-04-15T04:33:58;8.10;99.90
20670;DHT22;10494;50.868;4.180;2023-04-15T04:36:24;8.10;99.90
20670;DHT22;10494;50.868;4.180;2023-04-15T04:38:50;8.20;99.90
20670;DHT22;10494;50.868;4.180;2023-04-15T04:41:17;8.20;99.90
20670;DHT22;10494;50.868;4.180;2023-04-15T04:43:42;8.20;99.90
20670;DHT22;10494;50.868;4.180;2023-04-15T04:46:08;8.10;99.90
20670;DHT22;10494;50.868;4.180;2023-04-15T04:48:34;8.10;99.90
20670;DHT22;10494;50.868;4.180;2023-04-15T04:51:00;8.10;99.90
20670;DHT22;10494;50.868;4.180;2023-04-15T04:53:26;8.10;99.90
20670;DHT22;10494;50.868;4.180;2023-04-15T04:55:52;8.10;99.90
20670;DHT22;10494;50.868;4.180;2023-04-15T04:58:18;8.10;99.90
20670;DHT22;10494;50.868;4.180;2023-04-15T05:00:43;8.20;99.90
20670;DHT22;10494;50.868;4.180;2023-04-15T05:03:09;8.20;99.90
20670;DHT22;10494;50.868;4.180;2023-04-15T05:05:35;8.20;99.90
20670;DHT22;10494;50.868;4.180;2023-04-15T05:08:04;8.20;99.90
20670;DHT22;10494;50.868;4.180;2023-04-15T05:10:30;8.20;99.90
20670;DHT22;10494;50.868;4.180;2023-04-15T05:12:56;8.40;99.90
20670;DHT22;10494;50.868;4.180;2023-04-15T05:15:21;8.60;99.90
20670;DHT22;10494;50.868;4.180;2023-04-15T05:17:47;8.70;99.90
20670;DHT22;10494;50.868;4.180;2023-04-15T05:20:13;8.90;99.90
20670;DHT22;10494;50.868;4.180;2023-04-15T05:22:38;8.90;99.90
20670;DHT22;10494;50.868;4.180;2023-04-15T05:25:04;9.10;99.90
20670;DHT22;10494;50.868;4.180;2023-04-15T05:27:30;9.20;99.90
20670;DHT22;10494;50.868;4.180;2023-04-15T05:29:56;9.30;99.90
20670;DHT22;10494;50.868;4.180;2023-04-15T05:32:21;9.40;99.90
20670;DHT22;10494;50.868;4.180;2023-04-15T05:34:47;9.50;99.90
20670;DHT22;10494;50.868;4.180;2023-04-15T05:37:12;9.50;99.90
20670;DHT22;10494;50.868;4.180;2023-04-15T05:39:38;9.50;99.90
20670;DHT22;10494;50.868;4.180;2023-04-15T05:42:03;9.50;99.90
20670;DHT22;10494;50.868;4.180;2023-04-15T05:44:30;9.60;99.90
20670;DHT22;10494;50.868;4.180;2023-04-15T05:46:56;9.60;99.90
20670;DHT22;10494;50.868;4.180;2023-04-15T05:49:22;9.60;99.90
20670;DHT22;10494;50.868;4.180;2023-04-15T05:51:48;9.60;99.90
20670;DHT22;10494;50.868;4.180;2023-04-15T05:54:13;9.40;99.90
20670;DHT22;10494;50.868;4.180;2023-04-15T05:56:39;9.00;99.90
20670;DHT22;10494;50.868;4.180;2023-04-15T05:59:04;8.90;99.90
20670;DHT22;10494;50.868;4.180;2023-04-15T06:01:32;8.90;99.90
20670;DHT22;10494;50.868;4.180;2023-04-15T06:03:57;9.10;99.90
20670;DHT22;10494;50.868;4.180;2023-04-15T06:06:23;9.40;99.90
20670;DHT22;10494;50.868;4.180;2023-04-15T06:08:49;9.60;99.90
20670;DHT22;10494;50.868;4.180;2023-04-15T06:11:15;9.50;99.90
20670;DHT22;10494;50.868;4.180;2023-04-15T06:13:41;9.60;99.90
20670;DHT22;10494;50.868;4.180;2023-04-15T06:16:06;9.80;99.90
20670;DHT22;10494;50.868;4.180;2023-04-15T06:18:32;9.80;99.90
20670;DHT22;10494;50.868;4.180;2023-04-15T06:20:58;10.10;99.90
20670;DHT22;10494;50.868;4.180;2023-04-15T06:23:23;10.10;99.90
20670;DHT22;10494;50.868;4.180;2023-04-15T06:25:49;10.10;99.90
20670;DHT22;10494;50.868;4.180;2023-04-15T06:28:15;10.10;99.90
20670;DHT22;10494;50.868;4.180;2023-04-15T06:30:40;10.00;99.90
20670;DHT22;10494;50.868;4.180;2023-04-15T06:33:06;10.50;99.90
20670;DHT22;10494;50.868;4.180;2023-04-15T06:35:32;10.90;99.90
20670;DHT22;10494;50.868;4.180;2023-04-15T06:37:57;11.10;99.90
20670;DHT22;10494;50.868;4.180;2023-04-15T06:40:23;11.20;99.90
20670;DHT22;10494;50.868;4.180;2023-04-15T06:42:48;11.60;99.90
20670;DHT22;10494;50.868;4.180;2023-04-15T06:45:14;11.90;99.90
20670;DHT22;10494;50.868;4.180;2023-04-15T06:47:40;12.10;99.90
20670;DHT22;10494;50.868;4.180;2023-04-15T06:50:06;12.20;99.90
20670;DHT22;10494;50.868;4.180;2023-04-15T06:52:34;12.40;99.90
20670;DHT22;10494;50.868;4.180;2023-04-15T06:55:00;12.40;99.90
20670;DHT22;10494;50.868;4.180;2023-04-15T06:57:26;11.30;99.90
20670;DHT22;10494;50.868;4.180;2023-04-15T06:59:53;10.70;99.90
20670;DHT22;10494;50.868;4.180;2023-04-15T07:02:19;10.90;99.90
20670;DHT22;10494;50.868;4.180;2023-04-15T07:04:45;10.60;99.90
20670;DHT22;10494;50.868;4.180;2023-04-15T07:07:11;10.60;99.90
20670;DHT22;10494;50.868;4.180;2023-04-15T07:09:36;10.40;99.90
20670;DHT22;10494;50.868;4.180;2023-04-15T07:12:03;10.30;99.90
20670;DHT22;10494;50.868;4.180;2023-04-15T07:14:28;10.10;99.90
20670;DHT22;10494;50.868;4.180;2023-04-15T07:16:54;10.10;99.90
20670;DHT22;10494;50.868;4.180;2023-04-15T07:19:20;10.10;99.90
20670;DHT22;10494;50.868;4.180;2023-04-15T07:21:46;10.20;99.90
20670;DHT22;10494;50.868;4.180;2023-04-15T07:24:12;10.10;99.90
20670;DHT22;10494;50.868;4.180;2023-04-15T07:26:41;10.00;99.90
20670;DHT22;10494;50.868;4.180;2023-04-15T07:29:06;10.20;99.90
20670;DHT22;10494;50.868;4.180;2023-04-15T07:31:32;10.10;99.90
20670;DHT22;10494;50.868;4.180;2023-04-15T07:33:58;10.30;99.90
20670;DHT22;10494;50.868;4.180;2023-04-15T07:36:24;10.40;99.90
20670;DHT22;10494;50.868;4.180;2023-04-15T07:38:49;10.50;99.90
20670;DHT22;10494;50.868;4.180;2023-04-15T07:41:15;10.60;99.90
20670;DHT22;10494;50.868;4.180;2023-04-15T07:43:41;10.60;99.90
20670;DHT22;10494;50.868;4.180;2023-04-15T07:46:07;10.60;99.90
20670;DHT22;10494;50.868;4.180;2023-04-15T07:48:32;10.70;99.90
20670;DHT22;10494;50.868;4.180;2023-04-15T07:50:58;10.70;99.90
20670;DHT22;10494;50.868;4.180;2023-04-15T07:53:24;10.90;99.90
20670;DHT22;10494;50.868;4.180;2023-04-15T07:55:50;11.20;99.90
20670;DHT22;10494;50.868;4.180;2023-04-15T07:58:15;11.70;99.90
20670;DHT22;10494;50.868;4.180;2023-04-15T08:00:41;12.40;99.90
20670;DHT22;10494;50.868;4.180;2023-04-15T08:03:07;12.20;99.90
20670;DHT22;10494;50.868;4.180;2023-04-15T08:05:32;12.00;99.90
20670;DHT22;10494;50.868;4.180;2023-04-15T08:07:58;13.00;99.90
20670;DHT22;10494;50.868;4.180;2023-04-15T08:10:24;13.20;99.90
20670;DHT22;10494;50.868;4.180;2023-04-15T08:12:49;12.80;99.90
20670;DHT22;10494;50.868;4.180;2023-04-15T08:15:19;12.20;99.90
20670;DHT22;10494;50.868;4.180;2023-04-15T08:17:44;12.50;99.90
20670;DHT22;10494;50.868;4.180;2023-04-15T08:20:11;12.50;99.90
20670;DHT22;10494;50.868;4.180;2023-04-15T08:22:37;12.60;99.90
20670;DHT22;10494;50.868;4.180;2023-04-15T08:25:03;12.80;99.90
20670;DHT22;10494;50.868;4.180;2023-04-15T08:27:29;13.20;99.90
20670;DHT22;10494;50.868;4.180;2023-04-15T08:29:55;13.60;99.90
20670;DHT22;10494;50.868;4.180;2023-04-15T08:32:21;13.60;99.90
20670;DHT22;10494;50.868;4.180;2023-04-15T08:34:47;14.20;99.90
20670;DHT22;10494;50.868;4.180;2023-04-15T08:37:13;13.90;99.90
20670;DHT22;10494;50.868;4.180;2023-04-15T08:39:38;13.80;99.90
20670;DHT22;10494;50.868;4.180;2023-04-15T08:42:10;15.00;99.90
20670;DHT22;10494;50.868;4.180;2023-04-15T08:44:36;16.30;99.90
20670;DHT22;10494;50.868;4.180;2023-04-15T08:47:06;16.50;99.90
20670;DHT22;10494;50.868;4.180;2023-04-15T08:49:32;15.60;99.90
20670;DHT22;10494;50.868;4.180;2023-04-15T08:52:00;14.60;99.90
20670;DHT22;10494;50.868;4.180;2023-04-15T08:54:27;15.20;99.90
20670;DHT22;10494;50.868;4.180;2023-04-15T08:56:53;14.70;99.90
20670;DHT22;10494;50.868;4.180;2023-04-15T08:59:20;14.90;99.90
20670;DHT22;10494;50.868;4.180;2023-04-15T09:01:47;14.60;99.90
20670;DHT22;10494;50.868;4.180;2023-04-15T09:04:13;14.40;99.90
20670;DHT22;10494;50.868;4.180;2023-04-15T09:06:39;14.80;99.90
20670;DHT22;10494;50.868;4.180;2023-04-15T09:09:05;14.30;99.90
20670;DHT22;10494;50.868;4.180;2023-04-15T09:11:30;14.40;99.90
20670;DHT22;10494;50.868;4.180;2023-04-15T09:13:56;13.90;99.90
20670;DHT22;10494;50.868;4.180;2023-04-15T09:16:22;13.60;99.90
20670;DHT22;10494;50.868;4.180;2023-04-15T09:18:48;13.30;99.90
20670;DHT22;10494;50.868;4.180;2023-04-15T09:21:16;13.20;99.90
20670;DHT22;10494;50.868;4.180;2023-04-15T09:24:00;13.20;99.90
20670;DHT22;10494;50.868;4.180;2023-04-15T09:26:36;14.20;99.90
20670;DHT22;10494;50.868;4.180;2023-04-15T09:29:06;15.50;99.90
20670;DHT22;10494;50.868;4.180;2023-04-15T09:31:32;15.40;99.90
20670;DHT22;10494;50.868;4.180;2023-04-15T09:33:58;15.90;99.90
20670;DHT22;10494;50.868;4.180;2023-04-15T09:36:24;15.20;99.90
20670;DHT22;10494;50.868;4.180;2023-04-15T09:38:59;14.90;99.90
20670;DHT22;10494;50.868;4.180;2023-04-15T09:41:26;14.80;99.90
20670;DHT22;10494;50.868;4.180;2023-04-15T09:43:51;14.90;99.90
20670;DHT22;10494;50.868;4.180;2023-04-15T09:46:17;14.80;99.90
20670;DHT22;10494;50.868;4.180;2023-04-15T09:48:43;15.20;99.90
20670;DHT22;10494;50.868;4.180;2023-04-15T09:51:09;16.40;99.90
20670;DHT22;10494;50.868;4.180;2023-04-15T09:53:36;16.60;99.90
20670;DHT22;10494;50.868;4.180;2023-04-15T09:56:02;16.40;99.90
20670;DHT22;10494;50.868;4.180;2023-04-15T09:58:33;16.20;99.90
20670;DHT22;10494;50.868;4.180;2023-04-15T10:01:01;15.70;99.90
20670;DHT22;10494;50.868;4.180;2023-04-15T10:03:28;16.10;99.90
20670;DHT22;10494;50.868;4.180;2023-04-15T10:05:58;16.30;99.90
20670;DHT22;10494;50.868;4.180;2023-04-15T10:08:26;16.00;99.90
20670;DHT22;10494;50.868;4.180;2023-04-15T10:10:52;15.60;99.90
20670;DHT22;10494;50.868;4.180;2023-04-15T10:13:23;15.70;99.90
20670;DHT22;10494;50.868;4.180;2023-04-15T10:18:18;16.30;99.90
20670;DHT22;10494;50.868;4.180;2023-04-15T10:20:45;15.30;99.90
20670;DHT22;10494;50.868;4.180;2023-04-15T10:23:12;15.80;99.90
20670;DHT22;10494;50.868;4.180;2023-04-15T10:25:38;16.60;99.90
20670;DHT22;10494;50.868;4.180;2023-04-15T10:28:05;17.30;99.90
20670;DHT22;10494;50.868;4.180;2023-04-15T10:30:32;17.80;99.90
20670;DHT22;10494;50.868;4.180;2023-04-15T10:32:59;18.20;99.90
20670;DHT22;10494;50.868;4.180;2023-04-15T10:35:25;18.20;99.90
20670;DHT22;10494;50.868;4.180;2023-04-15T10:37:51;17.70;99.90
20670;DHT22;10494;50.868;4.180;2023-04-15T10:40:30;17.40;98.00
20670;DHT22;10494;50.868;4.180;2023-04-15T10:43:00;16.30;99.00
20670;DHT22;10494;50.868;4.180;2023-04-15T10:45:30;16.70;99.90
20670;DHT22;10494;50.868;4.180;2023-04-15T10:47:57;16.70;97.80
20670;DHT22;10494;50.868;4.180;2023-04-15T10:50:29;16.80;97.30
20670;DHT22;10494;50.868;4.180;2023-04-15T10:52:55;16.70;97.50
20670;DHT22;10494;50.868;4.180;2023-04-15T10:55:23;16.10;99.90
20670;DHT22;10494;50.868;4.180;2023-04-15T10:57:53;16.30;99.90
20670;DHT22;10494;50.868;4.180;2023-04-15T11:00:24;16.70;99.90
20670;DHT22;10494;50.868;4.180;2023-04-15T11:05:20;17.30;99.80
20670;DHT22;10494;50.868;4.180;2023-04-15T11:07:54;16.40;99.90
20670;DHT22;10494;50.868;4.180;2023-04-15T11:12:46;15.60;99.90
20670;DHT22;10494;50.868;4.180;2023-04-15T11:20:42;15.80;99.90
20670;DHT22;10494;50.868;4.180;2023-04-15T11:23:13;15.60;95.20
20670;DHT22;10494;50.868;4.180;2023-04-15T11:25:38;15.90;96.70
20670;DHT22;10494;50.868;4.180;2023-04-15T11:28:04;15.80;95.40
20670;DHT22;10494;50.868;4.180;2023-04-15T11:30:32;15.90;93.70
20670;DHT22;10494;50.868;4.180;2023-04-15T11:33:03;16.10;93.90
20670;DHT22;10494;50.868;4.180;2023-04-15T11:35:29;16.40;88.80
20670;DHT22;10494;50.868;4.180;2023-04-15T11:37:55;16.30;82.50
20670;DHT22;10494;50.868;4.180;2023-04-15T11:40:25;15.90;89.40
20670;DHT22;10494;50.868;4.180;2023-04-15T11:45:47;16.10;91.00
20670;DHT22;10494;50.868;4.180;2023-04-15T11:48:13;16.30;86.10
20670;DHT22;10494;50.868;4.180;2023-04-15T11:50:39;16.30;89.40
20670;DHT22;10494;50.868;4.180;2023-04-15T11:53:07;15.80;84.90
20670;DHT22;10494;50.868;4.180;2023-04-15T11:55:50;16.10;89.90
20670;DHT22;10494;50.868;4.180;2023-04-15T11:58:24;15.70;88.10
20670;DHT22;10494;50.868;4.180;2023-04-15T12:00:58;15.70;85.50
20670;DHT22;10494;50.868;4.180;2023-04-15T12:03:41;15.50;86.40
20670;DHT22;10494;50.868;4.180;2023-04-15T12:06:18;16.00;88.90
20670;DHT22;10494;50.868;4.180;2023-04-15T12:11:17;15.60;85.80
20670;DHT22;10494;50.868;4.180;2023-04-15T12:13:46;15.50;84.30
20670;DHT22;10494;50.868;4.180;2023-04-15T12:16:15;15.50;71.90
20670;DHT22;10494;50.868;4.180;2023-04-15T12:18:41;15.60;72.20
20670;DHT22;10494;50.868;4.180;2023-04-15T12:21:10;15.60;78.10
20670;DHT22;10494;50.868;4.180;2023-04-15T12:23:37;15.80;81.70
20670;DHT22;10494;50.868;4.180;2023-04-15T12:26:06;15.90;84.60
20670;DHT22;10494;50.868;4.180;2023-04-15T12:28:33;15.80;84.60
20670;DHT22;10494;50.868;4.180;2023-04-15T12:31:06;15.90;84.10
20670;DHT22;10494;50.868;4.180;2023-04-15T12:33:33;16.00;83.70
20670;DHT22;10494;50.868;4.180;2023-04-15T12:35:59;16.10;80.90
20670;DHT22;10494;50.868;4.180;2023-04-15T12:38:25;15.80;73.90
20670;DHT22;10494;50.868;4.180;2023-04-15T12:40:50;15.80;75.50
20670;DHT22;10494;50.868;4.180;2023-04-15T12:43:16;15.90;76.20
20670;DHT22;10494;50.868;4.180;2023-04-15T12:45:42;15.80;74.50
20670;DHT22;10494;50.868;4.180;2023-04-15T12:48:07;15.60;73.40
20670;DHT22;10494;50.868;4.180;2023-04-15T12:50:34;15.80;74.90
20670;DHT22;10494;50.868;4.180;2023-04-15T12:53:00;15.80;70.20
20670;DHT22;10494;50.868;4.180;2023-04-15T12:55:26;15.50;72.20
20670;DHT22;10494;50.868;4.180;2023-04-15T12:57:52;15.40;74.30
20670;DHT22;10494;50.868;4.180;2023-04-15T13:00:17;15.30;74.80
20670;DHT22;10494;50.868;4.180;2023-04-15T13:02:43;15.40;77.20
20670;DHT22;10494;50.868;4.180;2023-04-15T13:05:09;15.70;79.80
20670;DHT22;10494;50.868;4.180;2023-04-15T13:07:35;15.70;79.70
20670;DHT22;10494;50.868;4.180;2023-04-15T13:10:01;15.60;81.30
20670;DHT22;10494;50.868;4.180;2023-04-15T13:12:26;15.90;84.60
20670;DHT22;10494;50.868;4.180;2023-04-15T13:14:52;16.10;84.60
20670;DHT22;10494;50.868;4.180;2023-04-15T13:17:17;16.00;83.40
20670;DHT22;10494;50.868;4.180;2023-04-15T13:19:45;15.80;84.60
20670;DHT22;10494;50.868;4.180;2023-04-15T13:22:10;15.50;84.60
20670;DHT22;10494;50.868;4.180;2023-04-15T13:24:37;15.60;86.00
20670;DHT22;10494;50.868;4.180;2023-04-15T13:27:03;15.40;85.10
20670;DHT22;10494;50.868;4.180;2023-04-15T13:29:29;15.70;86.60
20670;DHT22;10494;50.868;4.180;2023-04-15T13:31:55;15.60;78.50
20670;DHT22;10494;50.868;4.180;2023-04-15T13:34:21;15.50;81.10
20670;DHT22;10494;50.868;4.180;2023-04-15T13:36:46;15.60;82.40
20670;DHT22;10494;50.868;4.180;2023-04-15T13:39:12;15.50;82.60
20670;DHT22;10494;50.868;4.180;2023-04-15T13:41:39;15.50;83.30
20670;DHT22;10494;50.868;4.180;2023-04-15T13:44:04;15.40;85.10
20670;DHT22;10494;50.868;4.180;2023-04-15T13:46:30;15.30;87.60
20670;DHT22;10494;50.868;4.180;2023-04-15T13:48:56;15.50;89.70
20670;DHT22;10494;50.868;4.180;2023-04-15T13:51:21;15.70;87.80
20670;DHT22;10494;50.868;4.180;2023-04-15T13:53:47;15.30;88.40
20670;DHT22;10494;50.868;4.180;2023-04-15T13:56:12;15.40;88.30
20670;DHT22;10494;50.868;4.180;2023-04-15T13:58:39;15.50;88.10
20670;DHT22;10494;50.868;4.180;2023-04-15T14:01:05;15.40;88.10
20670;DHT22;10494;50.868;4.180;2023-04-15T14:03:31;15.10;89.10
20670;DHT22;10494;50.868;4.180;2023-04-15T14:05:56;15.20;91.00
20670;DHT22;10494;50.868;4.180;2023-04-15T14:08:23;15.50;91.50
20670;DHT22;10494;50.868;4.180;2023-04-15T14:10:50;15.70;88.70
20670;DHT22;10494;50.868;4.180;2023-04-15T14:13:15;15.50;90.30
20670;DHT22;10494;50.868;4.180;2023-04-15T14:15:41;15.60;91.10
20670;DHT22;10494;50.868;4.180;2023-04-15T14:18:07;15.80;91.20
20670;DHT22;10494;50.868;4.180;2023-04-15T14:20:32;15.90;90.10
20670;DHT22;10494;50.868;4.180;2023-04-15T14:22:58;15.80;87.90
20670;DHT22;10494;50.868;4.180;2023-04-15T14:25:23;15.60;89.10
20670;DHT22;10494;50.868;4.180;2023-04-15T14:27:51;15.30;86.70
20670;DHT22;10494;50.868;4.180;2023-04-15T14:30:16;15.30;85.10
20670;DHT22;10494;50.868;4.180;2023-04-15T14:32:42;15.20;84.20
20670;DHT22;10494;50.868;4.180;2023-04-15T14:35:08;15.10;87.40
20670;DHT22;10494;50.868;4.180;2023-04-15T14:37:33;14.90;90.00
20670;DHT22;10494;50.868;4.180;2023-04-15T14:39:59;15.10;91.10
20670;DHT22;10494;50.868;4.180;2023-04-15T14:42:24;15.00;90.80
20670;DHT22;10494;50.868;4.180;2023-04-15T14:44:50;15.10;90.30
20670;DHT22;10494;50.868;4.180;2023-04-15T14:47:16;15.10;90.90
20670;DHT22;10494;50.868;4.180;2023-04-15T14:49:41;15.00;91.60
20670;DHT22;10494;50.868;4.180;2023-04-15T14:52:07;14.90;91.60
20670;DHT22;10494;50.868;4.180;2023-04-15T14:54:33;15.10;92.60
20670;DHT22;10494;50.868;4.180;2023-04-15T14:56:58;15.20;92.80
20670;DHT22;10494;50.868;4.180;2023-04-15T14:59:24;15.20;93.60
20670;DHT22;10494;50.868;4.180;2023-04-15T15:01:49;15.00;93.30
20670;DHT22;10494;50.868;4.180;2023-04-15T15:04:15;15.20;93.90
20670;DHT22;10494;50.868;4.180;2023-04-15T15:06:41;15.30;93.90
20670;DHT22;10494;50.868;4.180;2023-04-15T15:09:06;15.50;94.50
20670;DHT22;10494;50.868;4.180;2023-04-15T15:11:32;15.60;96.00
20670;DHT22;10494;50.868;4.180;2023-04-15T15:13:58;15.80;96.40
20670;DHT22;10494;50.868;4.180;2023-04-15T15:16:24;15.90;97.40
20670;DHT22;10494;50.868;4.180;2023-04-15T15:18:50;15.00;99.90
20670;DHT22;10494;50.868;4.180;2023-04-15T15:21:15;14.80;99.90
20670;DHT22;10494;50.868;4.180;2023-04-15T15:23:41;15.00;99.90
20670;DHT22;10494;50.868;4.180;2023-04-15T15:26:07;14.70;99.90
20670;DHT22;10494;50.868;4.180;2023-04-15T15:28:33;14.70;99.90
20670;DHT22;10494;50.868;4.180;2023-04-15T15:30:59;14.60;99.90
20670;DHT22;10494;50.868;4.180;2023-04-15T15:33:25;14.60;99.90
20670;DHT22;10494;50.868;4.180;2023-04-15T15:35:50;14.70;99.90
20670;DHT22;10494;50.868;4.180;2023-04-15T15:38:16;14.70;99.90
20670;DHT22;10494;50.868;4.180;2023-04-15T15:40:42;14.60;99.90
20670;DHT22;10494;50.868;4.180;2023-04-15T15:43:07;14.70;99.90
20670;DHT22;10494;50.868;4.180;2023-04-15T15:45:34;14.80;99.90
20670;DHT22;10494;50.868;4.180;2023-04-15T15:48:00;14.50;99.90